Time;durP1;ratioP1;P1;durP2;ratioP2;P2;SDS_P1;SDS_P2;PMS_P1;PMS_P2;Temp;Humidity;BMP_temperature;BMP_pressure;BME280_temperature;BME280_humidity;BME280_pressure;Samples;Min_cycle;Max_cycle;Signal;HPM_P1;HPM_P2
2022/04/16 00:02:01;;;;;;;7.63;5.30;;;;;;;14.16;69.81;101407.28;5034036;28;20422;-80
2022/04/16 00:04:27;;;;;;;7.65;5.40;;;;;;;14.14;69.72;101395.81;5033926;28;20487;-80
2022/04/16 00:06:54;;;;;;;6.80;4.82;;;;;;;14.19;69.92;101407.44;5032700;28;20033;-81
2022/04/16 00:09:19;;;;;;;6.63;5.00;;;;;;;14.15;69.98;101394.97;5034124;28;20099;-80
2022/04/16 00:11:45;;;;;;;6.53;4.90;;;;;;;14.13;69.89;101374.72;5033659;28;20446;-80
2022/04/16 00:14:12;;;;;;;6.78;4.95;;;;;;;14.16;69.92;101381.03;5033873;28;20116;-80
2022/04/16 00:16:38;;;;;;;6.95;5.28;;;;;;;14.05;69.84;101356.88;5032331;28;20417;-80
2022/04/16 00:19:04;;;;;;;6.50;5.03;;;;;;;14.18;69.92;101373.19;5033990;28;20100;-81
2022/04/16 00:21:30;;;;;;;6.50;4.75;;;;;;;14.08;69.90;101352.59;5049119;28;20056;-81
2022/04/16 00:23:57;;;;;;;8.18;5.30;;;;;;;14.15;69.92;101362.56;5052237;28;20036;-80
2022/04/16 00:26:23;;;;;;;6.30;5.00;;;;;;;14.17;69.77;101372.31;5052136;28;20025;-80
2022/04/16 00:28:52;;;;;;;6.50;4.80;;;;;;;14.14;69.68;101360.72;5053525;28;20029;-80
2022/04/16 00:31:18;;;;;;;5.38;4.60;;;;;;;14.15;70.03;101366.06;5053484;28;20094;-81
2022/04/16 00:33:46;;;;;;;6.43;5.10;;;;;;;14.15;69.91;101363.44;5052055;28;20454;-81
2022/04/16 00:36:14;;;;;;;6.78;4.97;;;;;;;14.08;70.06;101347.34;5053198;28;20116;-81
2022/04/16 00:38:40;;;;;;;6.10;4.43;;;;;;;14.12;70.14;101354.50;5052565;28;20108;-80
2022/04/16 00:41:06;;;;;;;;;;;;;;;14.18;69.91;101353.09;5035321;28;20068;-80
2022/04/16 00:43:32;;;;;;;7.47;5.20;;;;;;;13.98;69.99;101331.09;5053163;28;19912;-81
2022/04/16 00:45:59;;;;;;;5.75;4.50;;;;;;;14.11;70.10;101350.97;5052792;28;20461;-80
2022/04/16 00:48:25;;;;;;;5.88;4.63;;;;;;;14.13;70.24;101361.56;5053750;28;20033;-80
2022/04/16 00:50:51;;;;;;;;;;;;;;;14.18;69.92;101354.81;5053994;28;20441;-81
2022/04/16 00:53:17;;;;;;;6.35;4.80;;;;;;;14.13;70.24;101354.59;5052816;28;19950;-81
2022/04/16 00:55:43;;;;;;;5.38;4.35;;;;;;;14.11;70.15;101344.84;5052781;28;20431;-80
2022/04/16 00:58:09;;;;;;;4.80;4.28;;;;;;;14.09;70.10;101346.50;5053372;28;20029;-80
2022/04/16 01:00:35;;;;;;;5.75;4.72;;;;;;;14.10;70.21;101351.81;5051901;28;20033;-80
2022/04/16 01:03:00;;;;;;;5.97;4.72;;;;;;;14.09;70.31;101351.75;5052975;28;20041;-80
2022/04/16 01:05:26;;;;;;;5.87;4.57;;;;;;;14.05;70.24;101348.97;5052847;28;20036;-80
2022/04/16 01:07:56;;;;;;;6.35;4.63;;;;;;;14.10;70.39;101353.56;5052574;28;20279;-81
2022/04/16 01:10:26;;;;;;;6.43;4.68;;;;;;;14.10;70.37;101354.47;5052526;28;20028;-80
2022/04/16 01:12:55;;;;;;;5.57;4.70;;;;;;;14.05;70.33;101343.72;5051545;28;20032;-80
2022/04/16 01:15:22;;;;;;;5.70;4.50;;;;;;;14.09;70.26;101351.75;5051556;28;20033;-80
2022/04/16 01:17:47;;;;;;;;;;;;;;;14.11;70.15;101348.34;5051821;28;20028;-81
2022/04/16 01:20:14;;;;;;;5.40;4.47;;;;;;;14.08;70.47;101345.59;5052445;28;19974;-80
2022/04/16 01:22:40;;;;;;;7.90;4.57;;;;;;;14.05;70.33;101348.97;5034658;28;20021;-80
2022/04/16 01:25:07;;;;;;;6.10;4.47;;;;;;;14.04;70.54;101344.53;5052485;28;20040;-80
2022/04/16 01:27:35;;;;;;;6.82;4.60;;;;;;;14.02;70.24;101335.69;5051996;28;20089;-81
2022/04/16 01:30:04;;;;;;;6.88;4.88;;;;;;;14.03;70.54;101341.81;5052427;28;20025;-81
2022/04/16 01:32:32;;;;;;;6.00;4.80;;;;;;;14.03;70.58;101333.94;5052327;28;20103;-81
2022/04/16 01:35:00;;;;;;;7.38;4.75;;;;;;;14.01;70.60;101333.91;5047269;28;20037;-81
2022/04/16 01:37:31;;;;;;;6.28;4.82;;;;;;;14.01;70.68;101336.53;5038306;28;20404;-81
2022/04/16 01:39:58;;;;;;;6.20;4.70;;;;;;;14.01;70.48;101333.91;5016410;28;20067;-81
2022/04/16 01:42:24;;;;;;;5.15;4.60;;;;;;;14.00;70.32;101332.09;5051994;28;20552;-81
2022/04/16 01:44:51;;;;;;;6.38;4.78;;;;;;;13.98;70.48;101324.97;5051698;28;20032;-81
2022/04/16 01:47:17;;;;;;;6.00;4.80;;;;;;;13.96;70.57;101329.22;5032147;28;20029;-81
2022/04/16 01:49:43;;;;;;;6.45;5.15;;;;;;;13.88;70.52;101320.97;5030996;28;20036;-81
2022/04/16 01:52:09;;;;;;;7.18;4.53;;;;;;;14.00;70.47;101339.97;5033028;28;20418;-81
2022/04/16 01:54:36;;;;;;;6.40;4.53;;;;;;;13.76;70.61;101305.53;5052008;28;20112;-81
2022/04/16 01:57:02;;;;;;;6.55;4.75;;;;;;;14.00;70.39;101344.31;5034174;28;20037;-81
2022/04/16 01:59:29;;;;;;;6.70;4.95;;;;;;;13.92;70.39;101343.94;5051922;28;20041;-80
2022/04/16 02:01:56;;;;;;;7.57;4.80;;;;;;;13.97;70.57;101346.78;5051798;28;20103;-80
2022/04/16 02:04:22;;;;;;;6.03;4.80;;;;;;;13.95;70.68;101348.41;5034150;28;20094;-81
2022/04/16 02:06:52;;;;;;;6.90;4.85;;;;;;;13.97;70.49;101357.28;5051250;28;20033;-80
2022/04/16 02:09:17;;;;;;;6.10;4.75;;;;;;;13.95;70.30;101343.16;5051763;28;20029;-81
2022/04/16 02:11:44;;;;;;;6.43;5.00;;;;;;;13.97;70.43;101354.66;5051531;28;20131;-80
2022/04/16 02:14:09;;;;;;;6.70;4.57;;;;;;;13.97;70.15;101346.78;5033720;28;20033;-80
2022/04/16 02:16:35;;;;;;;6.53;4.82;;;;;;;13.97;69.94;101344.16;5051526;28;20025;-80
2022/04/16 02:19:00;;;;;;;6.15;4.90;;;;;;;13.97;70.11;101344.16;5051564;28;20045;-81
2022/04/16 02:21:32;;;;;;;6.15;4.90;;;;;;;13.92;70.23;101343.94;5050924;28;20517;-80
2022/04/16 02:23:58;;;;;;;5.63;4.55;;;;;;;13.95;69.96;101344.09;5051167;28;20036;-81
2022/04/16 02:26:25;;;;;;;;;;;;;;;13.99;70.09;101345.13;5051544;28;20056;-80
2022/04/16 02:28:51;;;;;;;6.00;4.68;;;;;;;13.88;70.09;101333.19;5048561;28;19917;-80
2022/04/16 02:31:17;;;;;;;5.90;4.75;;;;;;;13.94;70.09;101349.25;5031567;28;20034;-81
2022/04/16 02:33:42;;;;;;;6.05;4.70;;;;;;;13.93;70.03;101331.72;5013861;28;20026;-80
2022/04/16 02:36:08;;;;;;;6.85;4.93;;;;;;;13.92;70.09;101327.28;5031339;28;20108;-80
2022/04/16 02:38:34;;;;;;;6.15;4.60;;;;;;;13.85;69.83;101310.34;5031999;28;20563;-81
2022/04/16 02:41:00;;;;;;;5.70;4.72;;;;;;;13.92;69.84;101322.91;5017756;28;20087;-81
2022/04/16 02:43:26;;;;;;;7.63;4.97;;;;;;;13.94;69.51;101323.00;5017556;28;20033;-81
2022/04/16 02:48:35;;;;;;;5.93;4.60;;;;;;;13.94;69.68;101323.00;5055182;28;20425;-81
2022/04/16 02:51:02;;;;;;;5.88;4.85;;;;;;;13.85;69.73;101302.47;5055187;28;20029;-81
2022/04/16 02:53:28;;;;;;;6.95;4.50;;;;;;;13.90;69.66;101316.69;5055268;28;20036;-81
2022/04/16 02:55:56;;;;;;;7.40;5.03;;;;;;;13.92;69.41;101317.66;5037236;28;20033;-81
2022/04/16 02:58:22;;;;;;;6.30;4.68;;;;;;;13.91;69.71;101320.25;5055202;28;20029;-81
2022/04/16 03:00:48;;;;;;;6.10;4.78;;;;;;;13.76;69.80;101295.03;5055170;28;20037;-80
2022/04/16 03:03:14;;;;;;;6.68;4.65;;;;;;;13.89;69.92;101307.03;5054845;28;20029;-81
2022/04/16 03:05:41;;;;;;;7.43;4.70;;;;;;;13.90;69.77;101311.44;5054927;28;20060;-81
2022/04/16 03:08:07;;;;;;;;;;;;;;;13.93;69.85;101314.25;5021137;28;20025;-81
2022/04/16 03:10:33;;;;;;;6.82;4.90;;;;;;;13.90;69.89;101315.81;5037237;28;20440;-81
2022/04/16 03:12:59;;;;;;;5.95;4.57;;;;;;;13.89;69.81;101314.00;5037030;28;20025;-80
2022/04/16 03:18:10;;;;;;;5.22;4.30;;;;;;;13.83;70.15;101307.63;5055115;28;20032;-81
2022/04/16 03:20:37;;;;;;;6.57;4.38;;;;;;;13.87;70.27;101310.41;5041244;28;20429;-81
2022/04/16 03:23:03;;;;;;;4.70;4.20;;;;;;;13.80;70.23;101299.59;5053570;28;20025;-81
2022/04/16 03:25:29;;;;;;;5.80;4.53;;;;;;;13.83;70.46;101307.63;5053182;28;20032;-81
2022/04/16 03:27:58;;;;;;;5.65;4.40;;;;;;;13.83;70.50;101310.25;5053461;28;20029;-81
2022/04/16 03:30:25;;;;;;;5.53;4.38;;;;;;;13.84;70.14;101303.25;5054221;28;20044;-81
2022/04/16 03:32:51;;;;;;;6.63;4.72;;;;;;;13.77;70.05;101294.19;5054413;28;20111;-81
2022/04/16 03:35:21;;;;;;;5.60;4.40;;;;;;;13.85;70.25;101307.69;5054331;28;20060;-81
2022/04/16 03:37:47;;;;;;;6.93;4.82;;;;;;;13.88;70.08;101305.22;5036546;28;20478;-81
2022/04/16 03:40:13;;;;;;;4.95;4.28;;;;;;;13.72;69.92;101282.56;5054393;28;20032;-81
2022/04/16 03:42:49;;;;;;;5.20;4.20;;;;;;;13.87;70.03;101306.06;5054315;28;20040;-81
2022/04/16 03:45:23;;;;;;;5.45;4.50;;;;;;;13.89;70.24;101308.78;5053998;28;20029;-81
2022/04/16 03:47:49;;;;;;;5.30;4.35;;;;;;;13.88;70.04;101310.47;5054355;28;20025;-81
2022/04/16 03:50:16;;;;;;;5.20;4.15;;;;;;;13.80;70.29;101298.69;5053816;28;20079;-80
2022/04/16 03:52:46;;;;;;;6.40;4.72;;;;;;;13.81;70.15;101297.88;5054200;28;20032;-80
2022/04/16 04:01:04;;;;;;;5.90;4.43;;;;;;;13.84;70.09;101316.38;5054207;28;20040;-81
2022/04/16 04:03:30;;;;;;;5.97;4.70;;;;;;;13.83;70.08;101317.22;5055126;28;20052;-81
2022/04/16 04:05:56;;;;;;;;;;;;;;;13.90;69.89;101315.81;5053570;28;20100;-81
2022/04/16 04:08:23;;;;;;;5.47;4.32;;;;;;;13.82;70.02;101323.28;5054219;28;19919;-81
2022/04/16 04:10:49;;;;;;;6.00;4.72;;;;;;;13.80;70.03;101320.59;5054053;28;20091;-81
2022/04/16 04:13:16;;;;;;;5.95;4.10;;;;;;;13.75;70.31;101305.44;5053995;28;20493;-80
2022/04/16 04:15:41;;;;;;;4.50;3.97;;;;;;;13.80;70.02;101317.06;5052664;28;20433;-80
2022/04/16 04:18:07;;;;;;;6.95;4.60;;;;;;;13.73;70.15;101312.34;5053877;28;20029;-80
2022/04/16 04:20:35;;;;;;;6.72;4.82;;;;;;;13.77;70.03;101319.53;5053182;28;20049;-80
2022/04/16 04:23:04;;;;;;;6.13;4.88;;;;;;;13.78;70.25;101324.00;5053433;28;20033;-81
2022/04/16 04:25:30;;;;;;;7.78;5.28;;;;;;;13.76;70.08;101334.41;5052133;28;20487;-81
2022/04/16 04:27:56;;;;;;;7.13;4.68;;;;;;;13.81;69.92;101337.25;5053562;28;20036;-81
2022/04/16 04:30:22;;;;;;;8.05;5.32;;;;;;;13.81;69.95;101326.75;5039931;28;20091;-81
2022/04/16 04:32:47;;;;;;;6.82;5.10;;;;;;;13.81;69.72;101332.00;5053496;28;20536;-81
2022/04/16 04:35:13;;;;;;;7.85;4.90;;;;;;;13.74;69.73;101337.78;5035329;28;20040;-81
2022/04/16 04:37:39;;;;;;;6.20;4.50;;;;;;;13.69;69.72;101313.00;5053282;28;20087;-80
2022/04/16 04:40:05;;;;;;;5.18;4.63;;;;;;;13.75;69.34;101339.56;5035425;28;20098;-80
2022/04/16 04:42:31;;;;;;;;;;;;;;;13.78;69.77;101343.25;5053466;28;20035;-80
2022/04/16 04:44:57;;;;;;;7.15;4.72;;;;;;;13.75;69.78;101345.72;5052995;28;20007;-80
2022/04/16 04:47:23;;;;;;;7.68;5.20;;;;;;;13.76;69.55;101350.16;5051198;28;20415;-81
2022/04/16 04:49:49;;;;;;;5.60;4.40;;;;;;;13.74;69.65;101343.03;5046911;28;20036;-81
2022/04/16 04:52:30;;;;;;;7.72;5.30;;;;;;;13.74;69.62;101350.91;5049500;28;20059;-81
2022/04/16 04:55:03;;;;;;;6.70;4.80;;;;;;;13.63;69.83;101342.47;5041160;28;20406;-80
2022/04/16 04:57:28;;;;;;;7.93;4.90;;;;;;;13.66;69.99;101345.25;5051307;28;20095;-79
2022/04/16 04:59:54;;;;;;;5.80;4.55;;;;;;;13.63;70.13;101343.38;5052121;28;20518;-80
2022/04/16 05:02:21;;;;;;;5.80;4.78;;;;;;;13.67;70.06;101344.41;5051135;28;20095;-81
2022/04/16 05:04:46;;;;;;;6.38;4.40;;;;;;;13.71;69.91;101354.25;5051009;28;20131;-80
2022/04/16 05:07:12;;;;;;;6.22;4.78;;;;;;;13.59;69.97;101337.91;5051396;28;20514;-81
2022/04/16 05:09:38;;;;;;;6.32;4.65;;;;;;;13.68;69.79;101353.22;5034847;28;20032;-81
2022/04/16 05:12:04;;;;;;;6.13;4.90;;;;;;;13.62;69.98;101351.16;5051722;28;20036;-81
2022/04/16 05:14:31;;;;;;;5.63;4.50;;;;;;;13.68;70.16;101355.84;5034591;28;20112;-80
2022/04/16 05:16:57;;;;;;;6.40;4.80;;;;;;;13.70;70.11;101356.81;5052278;28;20490;-82
2022/04/16 05:19:23;;;;;;;5.93;4.60;;;;;;;13.57;70.20;101335.19;5051313;28;20029;-80
2022/04/16 05:21:49;;;;;;;5.68;4.03;;;;;;;13.67;70.20;101354.03;5050520;28;20514;-80
2022/04/16 05:24:14;;;;;;;5.57;4.68;;;;;;;13.65;70.17;101343.44;5051980;28;20057;-81
2022/04/16 05:26:40;;;;;;;6.18;4.53;;;;;;;13.63;70.14;101339.84;5052232;28;20561;-81
2022/04/16 05:29:06;;;;;;;5.70;4.50;;;;;;;13.65;70.35;101353.94;5047359;28;20124;-81
2022/04/16 05:31:32;;;;;;;;;;;;;;;13.70;70.08;101362.06;5014911;28;20053;-80
2022/04/16 05:36:43;;;;;;;5.80;4.53;;;;;;;13.61;70.44;101352.00;5047435;28;20135;-80
2022/04/16 05:39:09;;;;;;;5.88;4.65;;;;;;;13.63;70.21;101352.97;5041278;28;20128;-82
2022/04/16 05:41:35;;;;;;;;;;;;;;;13.68;70.24;101355.84;5026902;28;20032;-82
2022/04/16 05:44:04;;;;;;;6.18;4.50;;;;;;;13.61;70.16;101347.66;5019040;28;19917;-81
2022/04/16 05:46:30;;;;;;;6.28;4.60;;;;;;;13.63;70.38;101356.50;5031911;28;20143;-82
2022/04/16 05:48:55;;;;;;;5.97;4.63;;;;;;;13.63;70.46;101352.97;5039017;28;20063;-82
2022/04/16 05:51:22;;;;;;;6.57;4.40;;;;;;;13.63;70.40;101351.25;5052036;28;20033;-82
2022/04/16 05:53:48;;;;;;;5.28;4.50;;;;;;;13.64;70.17;101342.53;5043212;28;20022;-85
2022/04/16 05:56:16;;;;;;;5.63;4.22;;;;;;;13.65;70.45;101340.81;5043708;28;20442;-82
2022/04/16 05:58:42;;;;;;;4.85;3.90;;;;;;;13.65;70.29;101335.56;5033503;28;20047;-80
2022/04/16 06:01:09;;;;;;;5.40;4.32;;;;;;;13.67;70.25;101341.78;5033940;28;20033;-82
2022/04/16 06:03:36;;;;;;;5.30;4.25;;;;;;;13.53;70.48;101312.25;5051805;28;20032;-82
2022/04/16 06:06:08;;;;;;;5.03;3.72;;;;;;;13.63;70.24;101330.25;5032221;28;20549;-82
2022/04/16 06:08:37;;;;;;;5.15;4.40;;;;;;;13.62;70.47;101336.31;5041995;28;20025;-83
2022/04/16 06:11:04;;;;;;;7.00;4.80;;;;;;;13.65;70.56;101332.94;5029461;28;20033;-83
2022/04/16 06:13:30;;;;;;;5.35;4.30;;;;;;;13.56;70.29;101316.75;5048744;28;20025;-82
2022/04/16 06:15:56;;;;;;;6.45;4.60;;;;;;;13.55;70.22;101313.22;5050794;28;20029;-82
2022/04/16 06:18:22;;;;;;;;;;;;;;;13.66;70.31;101331.25;5047734;28;20110;-82
2022/04/16 06:20:47;;;;;;;8.23;4.75;;;;;;;13.44;71.03;101317.03;5033137;28;20370;-82
2022/04/16 06:23:13;;;;;;;9.45;5.25;;;;;;;13.39;71.11;101308.00;5051356;28;20025;-82
2022/04/16 06:25:38;;;;;;;6.85;5.35;;;;;;;13.62;72.00;101336.31;5045372;28;20414;-82
2022/04/16 06:28:04;;;;;;;7.97;5.85;;;;;;;13.33;71.78;101268.34;5035309;28;20026;-83
2022/04/16 06:30:30;;;;;;;7.55;5.82;;;;;;;13.41;71.91;101274.88;5041495;28;20040;-83
2022/04/16 06:32:56;;;;;;;7.60;5.75;;;;;;;13.64;72.12;101307.53;5017938;28;20103;-83
2022/04/16 06:35:21;;;;;;;7.80;6.00;;;;;;;13.34;71.96;101252.69;5029175;28;20537;-84
2022/04/16 06:37:47;;;;;;;7.28;5.35;;;;;;;13.53;72.54;101307.00;5013586;28;20032;-84
2022/04/16 06:40:13;;;;;;;6.60;5.47;;;;;;;13.63;72.11;101300.47;5016221;28;20116;-83
2022/04/16 06:42:40;;;;;;;7.13;5.38;;;;;;;13.67;72.08;101325.16;5030985;28;20386;-83
2022/04/16 06:45:06;;;;;;;;;;;;;;;13.71;72.03;101316.63;5015171;28;20041;-83
2022/04/16 06:47:31;;;;;;;6.60;5.40;;;;;;;13.64;71.79;101302.28;5031346;28;19982;-82
2022/04/16 06:49:57;;;;;;;7.75;5.60;;;;;;;13.56;72.15;101290.50;5031216;28;20398;-82
2022/04/16 06:52:23;;;;;;;7.03;5.20;;;;;;;13.53;72.38;101283.38;5041795;28;20029;-83
2022/04/16 06:54:49;;;;;;;8.02;5.70;;;;;;;13.64;72.35;101318.03;5039708;28;20071;-82
2022/04/16 06:57:15;;;;;;;7.18;5.18;;;;;;;13.67;72.34;101312.94;5032073;28;20049;-82
2022/04/16 06:59:40;;;;;;;8.32;5.35;;;;;;;13.44;72.52;101281.19;5012237;28;20029;-82
2022/04/16 07:02:08;;;;;;;8.52;5.65;;;;;;;13.62;72.32;101311.81;5028247;28;20052;-83
2022/04/16 07:04:34;;;;;;;6.75;5.30;;;;;;;13.64;72.28;101315.41;5028943;28;20022;-82
2022/04/16 07:06:59;;;;;;;6.30;5.22;;;;;;;13.59;72.39;101311.66;5013113;28;20060;-83
2022/04/16 07:09:25;;;;;;;7.18;5.45;;;;;;;13.44;72.52;101290.81;5038054;28;20026;-83
2022/04/16 07:11:51;;;;;;;8.50;5.82;;;;;;;13.51;72.64;101305.13;5013037;28;20088;-82
2022/04/16 07:14:17;;;;;;;7.05;5.20;;;;;;;13.31;72.51;101268.25;5050281;28;20082;-82
2022/04/16 07:16:42;;;;;;;7.13;5.72;;;;;;;13.47;72.24;101285.69;5045044;28;20037;-84
2022/04/16 07:19:09;;;;;;;6.68;5.28;;;;;;;13.68;72.19;101304.25;5039203;28;20029;-84
2022/04/16 07:21:34;;;;;;;;;;;;;;;13.84;71.62;101309.44;5042432;28;20041;-84
2022/04/16 07:24:00;;;;;;;7.03;5.43;;;;;;;13.65;71.92;101298.81;5031276;28;20413;-84
2022/04/16 07:26:26;;;;;;;6.80;5.10;;;;;;;13.36;72.59;101251.06;5019467;28;20110;-83
2022/04/16 07:28:51;;;;;;;6.38;5.25;;;;;;;13.22;72.10;101220.56;5036365;28;20045;-84
2022/04/16 07:31:17;;;;;;;6.47;5.38;;;;;;;13.80;71.91;101310.09;5046187;28;20029;-84
2022/04/16 07:33:42;;;;;;;6.47;5.38;;;;;;;13.50;71.80;101251.72;5034867;28;20460;-84
2022/04/16 07:36:08;;;;;;;6.90;5.27;;;;;;;13.83;71.75;101306.72;5035497;28;20120;-84
2022/04/16 07:38:34;;;;;;;8.90;5.28;;;;;;;13.32;71.80;101222.88;5034446;28;20330;-83
2022/04/16 07:40:59;;;;;;;6.85;5.30;;;;;;;13.81;71.49;101288.28;5038411;28;20029;-84
2022/04/16 07:43:26;;;;;;;7.18;5.70;;;;;;;13.86;71.41;101285.88;5016472;28;20061;-84
2022/04/16 07:45:52;;;;;;;6.53;5.07;;;;;;;13.69;71.33;101252.66;5034527;28;20033;-84
2022/04/16 07:48:18;;;;;;;5.90;5.00;;;;;;;13.77;71.52;101269.66;5034314;28;20205;-84
2022/04/16 07:50:43;;;;;;;7.75;5.85;;;;;;;13.48;71.74;101229.75;5033001;28;20043;-84
2022/04/16 07:53:09;;;;;;;7.45;5.20;;;;;;;13.71;71.38;101251.00;5034547;28;20030;-84
2022/04/16 07:55:34;;;;;;;6.63;5.22;;;;;;;13.41;71.39;101194.47;5017025;28;20067;-84
2022/04/16 07:58:00;;;;;;;7.75;5.53;;;;;;;13.81;71.66;101271.63;5034693;28;20401;-83
2022/04/16 08:00:26;;;;;;;6.70;5.30;;;;;;;13.52;71.58;101208.09;5037607;28;20470;-84
2022/04/16 08:02:52;;;;;;;7.30;5.18;;;;;;;13.86;71.87;101275.34;5037866;28;20498;-84
2022/04/16 08:05:18;;;;;;;8.70;5.80;;;;;;;13.35;72.19;101202.03;5040188;28;20048;-84
2022/04/16 08:07:46;;;;;;;7.45;5.68;;;;;;;13.73;72.76;101270.34;5039469;28;20057;-84
2022/04/16 08:10:11;;;;;;;8.13;6.28;;;;;;;13.48;72.57;101228.88;5039112;28;20045;-84
2022/04/16 08:12:37;;;;;;;6.50;5.50;;;;;;;13.63;72.84;101245.34;5028117;28;20025;-84
2022/04/16 08:15:04;;;;;;;9.18;5.40;;;;;;;13.71;72.62;101253.63;5052986;28;20041;-84
2022/04/16 08:17:30;;;;;;;7.88;6.00;;;;;;;13.61;72.48;101226.03;5032868;28;20027;-84
2022/04/16 08:19:56;;;;;;;7.57;5.70;;;;;;;13.22;72.39;101155.00;5019603;28;20124;-84
2022/04/16 08:22:22;;;;;;;8.77;6.10;;;;;;;13.84;72.27;101256.00;5024448;28;20033;-84
2022/04/16 08:25:43;;;;;;;7.50;5.63;;;;;;;13.78;72.12;101237.38;5022207;28;20033;-83
2022/04/16 08:27:42;;;;;;;8.05;5.50;;;;;;;13.82;71.97;101237.59;5032245;28;20108;-83
2022/04/16 08:30:10;;;;;;;7.15;5.30;;;;;;;13.79;72.51;101250.53;5032094;28;20057;-84
2022/04/16 08:32:41;;;;;;;8.05;5.55;;;;;;;13.72;72.62;101235.34;5031972;28;20101;-84
2022/04/16 08:35:12;;;;;;;7.68;5.50;;;;;;;13.71;72.90;101241.38;5036312;28;20541;-83
2022/04/16 08:37:37;;;;;;;7.10;5.63;;;;;;;13.74;72.62;101246.81;5032624;28;20028;-84
2022/04/16 08:40:05;;;;;;;7.88;5.50;;;;;;;13.71;73.01;101240.50;5032622;28;20029;-84
2022/04/16 08:42:33;;;;;;;8.10;5.88;;;;;;;13.49;72.72;101212.31;5046211;28;20033;-84
2022/04/16 08:44:59;;;;;;;7.68;5.63;;;;;;;13.35;73.11;101185.38;5032319;28;20116;-84
2022/04/16 08:47:25;;;;;;;7.90;5.70;;;;;;;13.40;72.92;101187.44;5031748;28;20581;-85
2022/04/16 08:49:50;;;;;;;11.82;6.55;;;;;;;13.74;72.55;101233.69;5039840;28;20041;-84
2022/04/16 08:52:17;;;;;;;8.30;6.07;;;;;;;13.65;72.34;101201.72;5036249;28;20021;-83
2022/04/16 08:54:43;;;;;;;9.85;6.13;;;;;;;13.74;73.07;101228.44;5033139;28;20064;-83
2022/04/16 08:57:09;;;;;;;9.68;5.80;;;;;;;13.76;73.80;101239.91;5028506;28;20053;-84
2022/04/16 08:59:34;;;;;;;18.27;7.05;;;;;;;13.93;74.22;101250.34;5027450;28;20032;-83
2022/04/16 09:02:00;;;;;;;17.08;6.55;;;;;;;13.92;74.19;101233.66;5015746;28;20025;-84
2022/04/16 09:04:31;;;;;;;25.73;7.18;;;;;;;13.95;74.16;101222.38;5023931;28;20035;-83
2022/04/16 09:07:03;;;;;;;12.65;6.75;;;;;;;13.68;74.15;101169.50;5035159;28;20033;-83
2022/04/16 09:09:29;;;;;;;12.07;6.15;;;;;;;13.93;73.87;101193.47;5018347;28;20620;-84
2022/04/16 09:11:55;;;;;;;12.07;6.57;;;;;;;14.02;73.93;101207.00;5032721;28;20053;-84
2022/04/16 09:14:35;;;;;;;15.45;6.75;;;;;;;14.03;73.95;101207.91;5032607;28;20044;-84
2022/04/16 09:17:00;;;;;;;9.07;6.18;;;;;;;13.93;73.89;101187.31;5015036;28;20017;-83
2022/04/16 09:19:38;;;;;;;11.63;6.45;;;;;;;13.81;73.61;101156.13;5014723;28;20462;-83
2022/04/16 09:22:04;;;;;;;18.15;7.55;;;;;;;13.93;73.77;101177.72;5022962;28;20091;-83
2022/04/16 09:24:56;;;;;;;10.75;6.32;;;;;;;14.01;73.46;101178.03;5052403;28;20032;-81
2022/04/16 09:27:21;;;;;;;12.52;6.63;;;;;;;14.19;73.43;101199.91;5035078;28;20036;-84
2022/04/16 09:29:47;;;;;;;9.48;6.30;;;;;;;14.01;73.96;101180.66;5032191;28;20414;-84
2022/04/16 09:32:44;;;;;;;10.98;6.90;;;;;;;14.11;74.00;101192.50;5034753;28;20036;-84
2022/04/16 09:35:31;;;;;;;11.95;6.53;;;;;;;14.03;74.17;101177.31;5014624;28;20037;-84
2022/04/16 09:37:57;;;;;;;10.30;6.63;;;;;;;14.12;73.81;101183.78;5038038;28;20502;-84
2022/04/16 09:40:49;;;;;;;11.90;6.38;;;;;;;14.16;74.06;101181.41;5051671;28;20109;-84
2022/04/16 09:43:15;;;;;;;11.13;6.63;;;;;;;13.87;73.96;101132.78;5047214;28;20098;-84
2022/04/16 09:45:42;;;;;;;15.85;6.75;;;;;;;13.99;74.01;101154.38;5017630;28;20032;-84
2022/04/16 09:48:34;;;;;;;10.52;6.70;;;;;;;14.12;73.73;101171.59;5050812;28;20564;-83
2022/04/16 09:51:00;;;;;;;12.05;6.47;;;;;;;13.90;73.48;101135.53;5042848;28;20041;-84
2022/04/16 09:53:25;;;;;;;11.02;6.05;;;;;;;13.75;73.78;101119.97;5030803;28;20059;-83
2022/04/16 09:55:53;;;;;;;11.70;6.68;;;;;;;13.68;73.63;101107.41;5033869;28;20497;-83
2022/04/16 09:58:26;;;;;;;11.57;6.63;;;;;;;13.96;73.92;101150.69;5041248;28;20029;-83
2022/04/16 10:00:52;;;;;;;8.80;6.47;;;;;;;14.08;73.58;101158.25;5033421;28;20405;-83
2022/04/16 10:03:17;;;;;;;9.40;6.47;;;;;;;14.08;73.80;101180.16;5016150;28;20029;-83
2022/04/16 10:05:44;;;;;;;13.90;6.50;;;;;;;13.97;73.96;101160.34;5037634;28;20037;-83
2022/04/16 10:08:11;;;;;;;8.50;6.25;;;;;;;14.12;74.25;101181.16;5017528;28;20060;-83
2022/04/16 10:10:41;;;;;;;10.70;6.28;;;;;;;14.04;74.12;101170.31;5042664;28;20064;-83
2022/04/16 10:13:10;;;;;;;12.07;6.50;;;;;;;14.11;74.35;101179.38;5034036;28;20497;-83
2022/04/16 10:15:54;;;;;;;11.55;6.57;;;;;;;14.24;74.33;101190.53;5027025;28;20057;-83
2022/04/16 10:18:20;;;;;;;12.48;6.78;;;;;;;14.16;74.65;101167.34;5031586;28;20059;-83
2022/04/16 10:20:55;;;;;;;;;;;;;;;14.34;75.76;101191.84;4997738;28;20466;-84
2022/04/16 10:23:31;;;;;;;14.65;6.97;;;;;;;14.27;78.29;101197.66;5031553;28;19928;-84
2022/04/16 10:26:09;;;;;;;14.70;7.30;;;;;;;14.25;81.01;101187.06;4997817;28;20032;-83
2022/04/16 10:28:52;;;;;;;14.88;6.97;;;;;;;14.18;82.58;101176.19;5013749;28;20037;-83
2022/04/16 10:31:29;;;;;;;11.85;7.30;;;;;;;14.32;85.44;101200.47;5030217;28;20029;-84
2022/04/16 10:34:00;;;;;;;13.13;7.38;;;;;;;14.36;86.29;101199.81;5014225;28;20033;-84
2022/04/16 10:36:36;;;;;;;15.73;8.85;;;;;;;14.31;88.41;101189.09;5031293;28;20075;-83
2022/04/16 10:39:27;;;;;;;16.48;8.02;;;;;;;14.38;89.27;101198.16;5031021;28;20705;-83
2022/04/16 10:42:01;;;;;;;14.98;8.40;;;;;;;14.37;92.48;101194.63;5012642;28;20574;-84
2022/04/16 10:44:29;;;;;;;16.48;8.40;;;;;;;14.35;93.04;101196.28;5012500;28;20025;-83
2022/04/16 10:46:55;;;;;;;16.02;8.07;;;;;;;14.18;92.13;101169.25;5029184;28;20537;-83
2022/04/16 10:49:27;;;;;;;17.15;8.07;;;;;;;14.37;92.30;101197.25;5012429;28;20029;-82
2022/04/16 10:51:55;;;;;;;18.58;8.70;;;;;;;14.43;92.33;101202.78;5030646;28;20041;-82
2022/04/16 10:54:34;;;;;;;13.73;7.85;;;;;;;14.40;91.52;101188.59;5029436;28;20022;-83
2022/04/16 10:57:01;;;;;;;17.02;8.20;;;;;;;14.49;89.83;101202.13;5013243;28;20049;-83
2022/04/16 10:59:42;;;;;;;15.70;8.43;;;;;;;14.52;90.09;101204.00;5013000;28;20380;-83
2022/04/16 11:02:28;;;;;;;13.05;8.15;;;;;;;14.43;88.51;101189.66;5046115;28;20033;-84
2022/04/16 11:05:05;;;;;;;17.15;8.55;;;;;;;14.44;87.65;101182.66;5025337;28;20032;-83
2022/04/16 11:07:35;;;;;;;13.60;8.52;;;;;;;14.54;87.05;101195.38;5035759;28;20029;-83
2022/04/16 11:10:06;;;;;;;19.10;9.30;;;;;;;14.31;86.76;101151.38;5020656;28;20029;-83
2022/04/16 11:12:31;;;;;;;19.58;8.85;;;;;;;14.37;86.62;101151.66;5033352;28;20415;-83
2022/04/16 11:14:57;;;;;;;22.30;8.27;;;;;;;14.62;85.62;101186.13;5031283;28;20032;-83
2022/04/16 11:17:24;;;;;;;18.90;9.07;;;;;;;14.59;85.24;101175.47;5022202;28;20025;-83
2022/04/16 11:20:06;;;;;;;18.30;8.88;;;;;;;14.62;85.50;101174.72;5016830;28;20033;-83
2022/04/16 11:22:35;;;;;;;22.35;9.20;;;;;;;14.74;85.35;101192.75;4998839;28;20549;-82
2022/04/16 11:25:06;;;;;;;19.02;8.70;;;;;;;14.53;85.17;101163.75;4999217;28;20036;-83
2022/04/16 11:35:59;;;;;;;15.37;8.80;;;;;;;14.69;84.23;101195.19;5024040;28;19923;-84
2022/04/16 11:38:27;;;;;;;17.70;8.05;;;;;;;14.71;84.27;101188.28;5025997;28;20320;-84
2022/04/16 11:40:53;;;;;;;14.07;8.40;;;;;;;14.62;83.83;101175.59;5021061;28;20025;-83
2022/04/16 11:43:22;;;;;;;13.85;8.73;;;;;;;14.54;83.42;101155.97;5050869;28;20544;-84
2022/04/16 11:45:48;;;;;;;19.20;8.65;;;;;;;14.66;83.04;101179.28;5025074;28;20032;-84
2022/04/16 11:48:15;;;;;;;13.43;8.10;;;;;;;14.32;83.28;101129.56;5039159;28;20036;-84
2022/04/16 11:50:41;;;;;;;14.75;8.25;;;;;;;14.37;82.73;101131.56;5034907;28;20063;-84
2022/04/16 11:53:07;;;;;;;12.60;7.75;;;;;;;14.42;82.41;101150.16;5033398;28;20060;-84